Time;durP1;ratioP1;P1;durP2;ratioP2;P2;SDS_P1;SDS_P2;PMS_P1;PMS_P2;Temp;Humidity;BMP_temperature;BMP_pressure;BME280_temperature;BME280_humidity;BME280_pressure;Samples;Min_cycle;Max_cycle;Signal;HPM_P1;HPM_P2
2022/11/07 00:01:14;;;;;;;11.98;8.00;;;9.50;99.90;;;;;;5030357;28;20033;-64
2022/11/07 00:03:40;;;;;;;14.95;7.97;;;9.50;99.90;;;;;;5026760;28;20060;-66
2022/11/07 00:06:05;;;;;;;16.15;8.73;;;9.50;99.90;;;;;;5026342;28;20474;-65
2022/11/07 00:08:31;;;;;;;12.23;7.78;;;9.60;99.90;;;;;;5042734;28;20047;-64
2022/11/07 00:10:58;;;;;;;13.95;7.82;;;9.50;99.90;;;;;;5033843;28;20048;-66
2022/11/07 00:13:26;;;;;;;11.55;7.35;;;9.60;99.90;;;;;;5028294;28;20041;-65
2022/11/07 00:15:52;;;;;;;12.77;7.20;;;9.60;99.90;;;;;;5028710;28;20041;-67
2022/11/07 00:18:18;;;;;;;11.60;6.97;;;9.70;99.90;;;;;;5029011;28;20665;-65
2022/11/07 00:20:43;;;;;;;11.00;7.85;;;9.60;99.90;;;;;;5030030;28;20037;-65
2022/11/07 00:23:09;;;;;;;11.10;7.38;;;9.60;99.90;;;;;;5035520;28;20420;-65
2022/11/07 00:25:34;;;;;;;12.73;7.53;;;9.70;99.90;;;;;;5044525;28;21335;-65
2022/11/07 00:28:00;;;;;;;12.00;7.18;;;9.80;99.90;;;;;;5029697;28;20591;-65
2022/11/07 00:30:25;;;;;;;12.05;7.20;;;9.80;99.90;;;;;;5030569;28;20037;-65
2022/11/07 00:32:51;;;;;;;12.40;7.70;;;9.80;99.90;;;;;;5044068;28;20162;-64
2022/11/07 00:35:16;;;;;;;11.18;7.38;;;9.90;99.90;;;;;;5036026;28;20041;-64
2022/11/07 00:37:42;;;;;;;13.50;7.13;;;9.90;99.90;;;;;;5043086;28;20041;-64
2022/11/07 00:40:08;;;;;;;11.65;6.72;;;9.90;99.90;;;;;;5029644;28;20049;-64
2022/11/07 00:42:34;;;;;;;12.38;6.70;;;9.90;99.90;;;;;;5039294;28;20040;-66
2022/11/07 00:44:59;;;;;;;11.85;7.10;;;9.90;99.90;;;;;;5042227;28;20462;-65
2022/11/07 00:47:25;;;;;;;12.90;6.95;;;9.90;99.90;;;;;;5036859;28;20041;-65
2022/11/07 00:49:50;;;;;;;8.93;6.97;;;9.80;99.90;;;;;;5044402;28;20037;-65
2022/11/07 00:52:16;;;;;;;12.85;6.53;;;9.80;99.90;;;;;;5025396;28;20580;-65
2022/11/07 00:54:41;;;;;;;16.08;6.70;;;9.90;99.90;;;;;;5029653;28;20065;-65
2022/11/07 00:57:07;;;;;;;10.48;6.50;;;9.90;99.90;;;;;;5033303;28;20045;-65
2022/11/07 00:59:32;;;;;;;12.27;6.70;;;9.90;99.90;;;;;;5028786;28;20051;-66
2022/11/07 01:01:58;;;;;;;15.05;6.57;;;9.90;99.90;;;;;;5031703;28;20095;-65
2022/11/07 01:07:08;;;;;;;12.27;7.45;;;10.00;99.90;;;;;;5034086;28;20128;-65
2022/11/07 01:09:33;;;;;;;12.90;6.80;;;9.90;99.90;;;;;;5047466;28;20112;-66
2022/11/07 01:11:59;;;;;;;11.55;6.45;;;9.90;99.90;;;;;;5027863;28;20053;-66
2022/11/07 01:14:26;;;;;;;11.10;6.47;;;9.90;99.90;;;;;;5018188;28;20036;-66
2022/11/07 01:16:52;;;;;;;9.15;5.97;;;10.00;99.90;;;;;;5031711;28;20355;-65
2022/11/07 01:19:18;;;;;;;14.65;6.68;;;10.10;99.90;;;;;;5031052;28;20036;-67
2022/11/07 01:21:44;;;;;;;13.45;6.22;;;10.10;99.90;;;;;;5032189;28;21072;-65
2022/11/07 01:24:12;;;;;;;14.70;6.85;;;10.20;99.90;;;;;;5037950;28;20069;-66
2022/11/07 01:26:38;;;;;;;9.63;6.40;;;10.30;99.90;;;;;;5049027;28;20388;-65
2022/11/07 01:29:04;;;;;;;14.43;6.63;;;10.20;99.90;;;;;;5047275;28;20495;-64
2022/11/07 01:31:30;;;;;;;10.93;6.72;;;10.20;99.90;;;;;;5049379;28;20477;-64
2022/11/07 01:33:57;;;;;;;13.07;6.05;;;10.20;99.90;;;;;;5039929;28;20041;-64
2022/11/07 01:36:23;;;;;;;12.65;5.55;;;10.10;99.90;;;;;;5032214;28;20123;-65
2022/11/07 01:38:49;;;;;;;8.77;5.60;;;10.20;99.90;;;;;;5034643;28;20069;-65
2022/11/07 01:41:24;;;;;;;11.02;6.15;;;10.30;99.90;;;;;;5034417;28;20446;-64
2022/11/07 01:44:01;;;;;;;12.73;6.53;;;10.30;99.90;;;;;;5032743;28;20041;-66
2022/11/07 01:46:33;;;;;;;13.45;6.05;;;10.30;99.90;;;;;;5039533;28;20048;-66
2022/11/07 01:49:07;;;;;;;13.13;5.38;;;10.30;99.90;;;;;;5035622;28;20041;-65
2022/11/07 01:51:40;;;;;;;10.98;5.70;;;10.30;99.90;;;;;;5032116;28;20384;-63
2022/11/07 01:54:06;;;;;;;13.02;5.55;;;10.30;99.90;;;;;;5032412;28;20071;-65
2022/11/07 01:56:36;;;;;;;10.52;5.40;;;10.30;99.90;;;;;;5034456;28;20044;-65
2022/11/07 01:59:03;;;;;;;10.20;5.70;;;10.30;99.90;;;;;;5033692;28;20123;-64
2022/11/07 02:01:28;;;;;;;10.50;5.45;;;10.30;99.90;;;;;;5045175;28;20048;-65
2022/11/07 02:03:56;;;;;;;10.75;5.35;;;10.40;99.90;;;;;;5043682;28;20033;-65
2022/11/07 02:06:43;;;;;;;11.57;5.95;;;10.40;99.90;;;;;;5037221;28;20045;-65
2022/11/07 02:09:09;;;;;;;7.85;5.00;;;10.50;99.90;;;;;;5029786;28;20543;-64
2022/11/07 02:11:35;;;;;;;12.35;5.30;;;10.40;99.90;;;;;;5036938;28;20037;-66
2022/11/07 02:14:01;;;;;;;12.10;5.28;;;10.40;99.90;;;;;;5047786;28;20037;-65
2022/11/07 02:16:27;;;;;;;11.80;5.80;;;10.40;99.90;;;;;;5044880;28;20048;-65
2022/11/07 02:18:54;;;;;;;11.18;5.50;;;10.30;99.90;;;;;;5013585;28;20060;-65
2022/11/07 02:21:40;;;;;;;12.93;5.40;;;10.40;99.90;;;;;;5032412;28;20052;-65
2022/11/07 02:24:06;;;;;;;14.70;6.20;;;10.40;99.90;;;;;;5033184;28;20052;-64
2022/11/07 02:26:37;;;;;;;11.30;5.35;;;10.30;99.90;;;;;;5038334;28;20485;-66
2022/11/07 02:29:06;;;;;;;9.70;5.50;;;10.40;99.90;;;;;;5033255;28;20543;-66
2022/11/07 02:31:32;;;;;;;13.18;5.28;;;10.40;99.90;;;;;;5031743;28;20049;-65
2022/11/07 02:33:57;;;;;;;10.00;5.22;;;10.50;99.90;;;;;;5046303;28;20033;-65
2022/11/07 02:36:24;;;;;;;12.50;5.20;;;10.50;99.90;;;;;;5031712;28;20088;-64
2022/11/07 02:38:57;;;;;;;13.10;5.15;;;10.50;99.90;;;;;;5049018;28;20115;-66
2022/11/07 02:41:28;;;;;;;9.25;4.10;;;10.50;99.90;;;;;;5038887;28;20044;-64
2022/11/07 02:43:58;;;;;;;12.38;4.93;;;10.60;99.90;;;;;;5037640;28;20052;-65
2022/11/07 02:46:24;;;;;;;14.77;5.00;;;10.60;99.90;;;;;;5034483;28;20041;-65
2022/11/07 02:48:56;;;;;;;11.68;5.25;;;10.60;99.90;;;;;;5044101;28;20059;-66
2022/11/07 02:51:22;;;;;;;12.35;4.93;;;10.70;99.90;;;;;;5039845;28;20109;-65
2022/11/07 02:53:48;;;;;;;8.10;4.47;;;10.70;99.90;;;;;;5041834;28;20373;-65
2022/11/07 02:56:14;;;;;;;11.90;5.32;;;10.70;99.90;;;;;;5037832;28;20040;-64
2022/11/07 02:58:39;;;;;;;11.65;5.20;;;10.60;99.90;;;;;;5045972;28;20041;-65
2022/11/07 03:01:05;;;;;;;11.13;4.60;;;10.60;99.90;;;;;;5040950;28;20072;-66
2022/11/07 03:03:37;;;;;;;9.98;4.75;;;10.60;99.90;;;;;;5043611;28;20037;-65
2022/11/07 03:06:04;;;;;;;14.70;5.57;;;10.70;99.90;;;;;;5038254;28;20441;-65
2022/11/07 03:08:30;;;;;;;12.35;5.07;;;10.70;99.90;;;;;;5031396;28;20041;-64
2022/11/07 03:10:56;;;;;;;9.93;5.03;;;10.70;99.90;;;;;;5037466;28;20112;-64
2022/11/07 03:13:22;;;;;;;11.77;5.28;;;10.70;99.90;;;;;;5031904;28;20040;-66
2022/11/07 03:15:49;;;;;;;11.07;5.05;;;10.70;99.90;;;;;;5032458;28;20120;-65
2022/11/07 03:18:14;;;;;;;12.43;5.15;;;10.70;99.90;;;;;;5040886;28;20041;-65
2022/11/07 03:20:40;;;;;;;12.00;5.00;;;10.80;99.90;;;;;;5036672;28;20052;-64
2022/11/07 03:23:06;;;;;;;11.10;5.55;;;10.80;99.90;;;;;;5034771;28;20041;-65
2022/11/07 03:25:31;;;;;;;9.48;4.70;;;10.70;99.90;;;;;;5038128;28;20049;-65
2022/11/07 03:27:57;;;;;;;13.25;4.95;;;10.70;99.90;;;;;;5030467;28;20039;-65
2022/11/07 03:30:22;;;;;;;8.93;5.13;;;10.60;99.90;;;;;;5030452;28;20103;-64
2022/11/07 03:32:51;;;;;;;8.35;4.60;;;10.50;99.90;;;;;;5029828;28;20137;-65
2022/11/07 03:35:17;;;;;;;15.35;5.13;;;10.50;99.90;;;;;;5028446;28;20132;-66
2022/11/07 03:37:46;;;;;;;15.30;5.25;;;10.40;99.90;;;;;;5030948;28;20108;-66
2022/11/07 03:40:13;;;;;;;11.93;5.15;;;10.40;99.90;;;;;;5033424;28;20389;-65
2022/11/07 03:42:39;;;;;;;16.15;5.55;;;10.40;99.90;;;;;;5031803;28;20090;-64
2022/11/07 03:45:07;;;;;;;16.35;5.65;;;10.40;99.90;;;;;;5034473;28;20049;-65
2022/11/07 03:47:38;;;;;;;11.93;5.53;;;10.30;99.90;;;;;;5032180;28;20160;-65
2022/11/07 03:50:05;;;;;;;14.93;5.80;;;10.20;99.90;;;;;;5035746;28;20038;-66
2022/11/07 03:52:31;;;;;;;12.18;5.43;;;10.20;99.90;;;;;;5047024;28;20080;-65
2022/11/07 03:54:56;;;;;;;14.90;5.18;;;10.20;99.90;;;;;;5037902;28;20068;-64
2022/11/07 03:57:22;;;;;;;10.82;5.53;;;10.30;99.90;;;;;;5029415;28;20068;-66
2022/11/07 03:59:48;;;;;;;17.55;5.70;;;10.30;99.90;;;;;;5050041;28;20078;-64
2022/11/07 04:02:13;;;;;;;12.85;5.00;;;10.30;99.90;;;;;;5033269;28;20084;-65
2022/11/07 04:04:39;;;;;;;12.27;5.07;;;10.30;99.90;;;;;;5027199;28;20064;-65
2022/11/07 04:07:05;;;;;;;11.38;5.25;;;10.30;99.90;;;;;;5021745;28;20068;-65
2022/11/07 04:09:30;;;;;;;13.77;5.78;;;10.30;99.90;;;;;;5032896;28;20102;-65
2022/11/07 04:17:25;;;;;;;13.57;5.55;;;10.50;99.90;;;;;;5032667;28;20053;-65
2022/11/07 04:19:54;;;;;;;8.40;5.00;;;10.50;99.90;;;;;;5045956;28;20041;-65
2022/11/07 04:22:21;;;;;;;10.48;4.68;;;10.60;99.90;;;;;;5030000;28;20042;-65
2022/11/07 04:24:48;;;;;;;12.73;5.20;;;10.50;99.90;;;;;;5031694;28;20464;-65
2022/11/07 04:30:26;;;;;;;11.65;5.00;;;10.50;99.90;;;;;;5044256;28;20049;-65
2022/11/07 04:32:56;;;;;;;12.05;5.18;;;10.40;99.90;;;;;;5028553;28;20038;-65
2022/11/07 04:35:25;;;;;;;9.07;4.75;;;10.40;99.90;;;;;;5036100;28;20040;-66
2022/11/07 04:37:50;;;;;;;12.60;5.30;;;10.50;99.90;;;;;;5029945;28;20045;-64
2022/11/07 04:40:17;;;;;;;14.02;5.18;;;10.40;99.90;;;;;;5031731;28;20444;-66
2022/11/07 04:42:43;;;;;;;14.80;4.72;;;10.50;99.90;;;;;;5036247;28;20049;-65
2022/11/07 04:45:10;;;;;;;15.13;4.97;;;10.60;99.90;;;;;;5028402;28;20421;-66
2022/11/07 04:47:36;;;;;;;9.07;5.28;;;10.50;99.90;;;;;;5042937;28;20053;-65
2022/11/07 04:50:03;;;;;;;13.65;4.80;;;10.60;99.90;;;;;;5047680;28;20083;-64
2022/11/07 04:52:29;;;;;;;15.63;4.75;;;10.50;99.90;;;;;;5032258;28;20544;-64
2022/11/07 04:54:54;;;;;;;11.10;5.32;;;10.60;99.90;;;;;;5043958;28;20037;-65
2022/11/07 04:57:20;;;;;;;10.73;4.95;;;10.60;99.90;;;;;;5029615;28;20045;-64
2022/11/07 04:59:46;;;;;;;11.38;4.95;;;10.60;99.90;;;;;;5032033;28;20045;-64
2022/11/07 05:02:11;;;;;;;10.95;5.03;;;10.60;99.90;;;;;;5032320;28;20076;-65
2022/11/07 05:04:38;;;;;;;12.68;4.80;;;10.60;99.90;;;;;;5027583;28;20068;-64
2022/11/07 05:07:04;;;;;;;10.70;4.80;;;10.60;99.90;;;;;;5033864;28;20113;-64
2022/11/07 05:09:29;;;;;;;18.38;5.15;;;10.60;99.90;;;;;;5037655;28;20374;-66
2022/11/07 05:11:55;;;;;;;12.18;5.13;;;10.70;99.90;;;;;;5040884;28;20087;-66
2022/11/07 05:14:21;;;;;;;8.27;4.70;;;10.60;99.90;;;;;;5047193;28;20064;-66
2022/11/07 05:16:49;;;;;;;10.27;4.90;;;10.70;99.90;;;;;;5017259;28;21323;-65
2022/11/07 05:19:16;;;;;;;12.13;4.78;;;10.60;99.90;;;;;;5027949;28;20393;-65
2022/11/07 05:21:42;;;;;;;15.65;4.63;;;10.60;99.90;;;;;;5031433;28;20457;-65
2022/11/07 05:24:08;;;;;;;13.82;5.05;;;10.60;99.90;;;;;;5031379;28;20041;-65
2022/11/07 05:26:33;;;;;;;12.48;4.85;;;10.60;99.90;;;;;;5028351;28;20034;-65
2022/11/07 05:28:59;;;;;;;10.90;5.10;;;10.50;99.90;;;;;;5040898;28;20037;-66
2022/11/07 05:31:24;;;;;;;12.90;5.93;;;10.50;99.90;;;;;;5033918;28;20038;-65
2022/11/07 05:33:50;;;;;;;10.30;4.90;;;10.50;99.90;;;;;;5033976;28;20033;-65
2022/11/07 05:36:21;;;;;;;8.82;4.93;;;10.60;99.90;;;;;;5033281;28;20512;-65
2022/11/07 05:38:49;;;;;;;18.00;5.45;;;10.50;99.90;;;;;;5030458;28;20087;-66
2022/11/07 05:41:17;;;;;;;10.05;5.25;;;10.50;99.90;;;;;;5030022;28;20049;-65
2022/11/07 05:43:43;;;;;;;14.60;5.60;;;10.60;99.90;;;;;;5029706;28;20040;-65
2022/11/07 05:46:09;;;;;;;13.75;5.18;;;10.50;99.90;;;;;;5033882;28;20172;-65
2022/11/07 05:48:35;;;;;;;12.98;5.70;;;10.50;99.90;;;;;;5034529;28;20037;-64
2022/11/07 05:51:00;;;;;;;12.82;5.20;;;10.50;99.90;;;;;;5035632;28;20029;-64
2022/11/07 05:53:26;;;;;;;12.10;5.07;;;10.50;99.90;;;;;;5031062;28;20030;-64
2022/11/07 05:55:52;;;;;;;12.90;5.68;;;10.50;99.90;;;;;;5028680;28;20041;-65
2022/11/07 05:58:18;;;;;;;13.77;5.53;;;10.50;99.90;;;;;;5039945;28;20041;-64
2022/11/07 06:00:44;;;;;;;12.48;5.57;;;10.50;99.90;;;;;;5039143;28;20068;-64
2022/11/07 06:03:10;;;;;;;10.60;5.20;;;10.50;99.90;;;;;;5027122;28;20132;-64
2022/11/07 06:05:41;;;;;;;10.27;5.53;;;10.60;99.90;;;;;;5028518;28;20038;-65
2022/11/07 06:08:10;;;;;;;13.75;5.05;;;10.60;99.90;;;;;;5041472;28;20041;-65
2022/11/07 06:10:37;;;;;;;11.73;5.10;;;10.60;99.90;;;;;;5027426;28;20037;-65
2022/11/07 06:13:05;;;;;;;10.40;4.85;;;10.60;99.90;;;;;;5030976;28;20083;-65
2022/11/07 06:15:32;;;;;;;12.40;4.95;;;10.60;99.90;;;;;;5033876;28;20228;-65
2022/11/07 06:18:00;;;;;;;12.57;5.20;;;10.60;99.90;;;;;;5044011;28;20051;-65
2022/11/07 06:20:26;;;;;;;12.10;4.80;;;10.60;99.90;;;;;;5032358;28;20041;-65
2022/11/07 06:22:51;;;;;;;10.55;4.85;;;10.60;99.90;;;;;;5040792;28;20048;-66
2022/11/07 06:25:17;;;;;;;13.20;5.25;;;10.60;99.90;;;;;;5032393;28;20497;-66
2022/11/07 06:27:43;;;;;;;12.18;5.28;;;10.60;99.90;;;;;;5030855;28;20051;-66
2022/11/07 06:30:09;;;;;;;9.73;5.28;;;10.60;99.90;;;;;;5030115;28;20045;-66
2022/11/07 06:32:35;;;;;;;14.32;5.25;;;10.60;99.90;;;;;;5030468;28;20044;-65
2022/11/07 06:35:01;;;;;;;11.57;5.07;;;10.60;99.90;;;;;;5036009;28;20538;-64
2022/11/07 06:37:26;;;;;;;12.10;5.05;;;10.60;99.90;;;;;;5033572;28;20041;-64
2022/11/07 06:39:52;;;;;;;13.68;5.78;;;10.60;99.90;;;;;;5037677;28;20092;-65
2022/11/07 06:42:17;;;;;;;10.85;5.25;;;10.60;99.90;;;;;;5030532;28;20111;-67
2022/11/07 06:44:43;;;;;;;14.98;5.78;;;10.40;99.90;;;;;;5047736;28;20053;-65
2022/11/07 06:47:08;;;;;;;16.67;6.75;;;10.30;99.90;;;;;;5035019;28;20064;-65
2022/11/07 06:49:34;;;;;;;11.57;5.82;;;10.30;99.90;;;;;;5034672;28;20500;-67
2022/11/07 06:52:00;;;;;;;14.02;7.18;;;10.20;99.90;;;;;;5043980;28;20503;-65
2022/11/07 06:54:25;;;;;;;16.95;6.78;;;10.20;99.90;;;;;;5031790;28;20041;-65
2022/11/07 06:56:51;;;;;;;17.30;6.95;;;10.20;99.90;;;;;;5048779;28;20033;-65
2022/11/07 06:59:16;;;;;;;15.68;6.97;;;10.20;99.90;;;;;;5033500;28;20049;-65
2022/11/07 07:01:42;;;;;;;21.02;7.72;;;10.10;99.90;;;;;;5044165;28;20404;-67
2022/11/07 07:04:10;;;;;;;21.83;8.50;;;10.20;99.90;;;;;;5037010;28;20041;-67
2022/11/07 07:06:37;;;;;;;18.33;7.72;;;10.10;99.90;;;;;;5048651;28;20052;-67
2022/11/07 07:09:05;;;;;;;17.40;7.75;;;10.10;99.90;;;;;;5058478;28;20116;-66
2022/11/07 07:11:34;;;;;;;14.50;8.05;;;10.10;99.90;;;;;;5041804;28;20041;-66
2022/11/07 07:13:59;;;;;;;17.63;8.02;;;10.10;99.90;;;;;;5047956;28;20048;-65
2022/11/07 07:16:25;;;;;;;22.20;8.77;;;10.10;99.90;;;;;;5049219;28;20545;-66
2022/11/07 07:18:50;;;;;;;26.02;9.20;;;10.20;99.90;;;;;;5043928;28;20524;-65
2022/11/07 07:21:16;;;;;;;21.08;8.70;;;10.20;99.90;;;;;;5034185;28;20045;-66
2022/11/07 07:23:41;;;;;;;22.00;8.88;;;10.20;99.90;;;;;;5039536;28;20033;-65
2022/11/07 07:26:11;;;;;;;18.25;8.98;;;10.20;99.90;;;;;;5029687;28;20042;-65
2022/11/07 07:28:37;;;;;;;23.23;9.82;;;10.20;99.90;;;;;;5040273;28;20041;-65
2022/11/07 07:31:13;;;;;;;22.52;9.73;;;10.30;99.90;;;;;;5038844;28;20051;-65
2022/11/07 07:33:39;;;;;;;20.13;8.60;;;10.30;99.90;;;;;;5031542;28;20068;-65
2022/11/07 07:36:06;;;;;;;21.13;8.65;;;10.30;99.90;;;;;;5038378;28;20409;-65
2022/11/07 07:38:31;;;;;;;22.10;8.38;;;10.40;99.90;;;;;;5039080;28;20037;-65
2022/11/07 07:40:58;;;;;;;19.45;8.02;;;10.40;99.90;;;;;;5042131;28;20045;-65
2022/11/07 07:43:25;;;;;;;15.70;8.27;;;10.40;99.90;;;;;;5033814;28;20096;-65
2022/11/07 07:45:50;;;;;;;17.25;8.55;;;10.40;99.90;;;;;;5031784;28;20041;-65
2022/11/07 07:48:16;;;;;;;16.40;7.15;;;10.40;99.90;;;;;;5049598;28;20041;-65
2022/11/07 07:50:41;;;;;;;22.15;8.15;;;10.50;99.90;;;;;;5040007;28;20037;-66
2022/11/07 07:53:07;;;;;;;18.00;7.90;;;10.50;99.90;;;;;;5032397;28;20122;-66
2022/11/07 07:55:33;;;;;;;19.73;7.53;;;10.40;99.90;;;;;;5039954;28;20855;-64
2022/11/07 07:57:59;;;;;;;18.80;8.18;;;10.50;99.90;;;;;;5036550;28;20120;-65
2022/11/07 08:00:24;;;;;;;15.82;6.70;;;10.50;99.90;;;;;;5039604;28;20045;-64
2022/11/07 08:02:50;;;;;;;15.15;7.45;;;10.50;99.90;;;;;;5041092;28;20033;-65
2022/11/07 08:05:15;;;;;;;20.67;6.60;;;10.50;99.90;;;;;;5045816;28;20057;-66
2022/11/07 08:07:49;;;;;;;17.05;6.80;;;10.50;99.90;;;;;;5035815;28;20040;-65
2022/11/07 08:10:17;;;;;;;15.32;7.38;;;10.50;99.90;;;;;;5040258;28;20065;-66
2022/11/07 08:12:47;;;;;;;15.88;6.82;;;10.50;99.90;;;;;;5015134;28;20037;-65
2022/11/07 08:15:14;;;;;;;14.18;6.18;;;10.60;99.90;;;;;;5036523;28;20384;-65
2022/11/07 08:17:40;;;;;;;25.60;6.47;;;10.60;99.90;;;;;;5032867;28;20083;-65
2022/11/07 08:20:08;;;;;;;16.17;5.88;;;10.60;99.90;;;;;;5034358;28;20049;-66
2022/11/07 08:22:34;;;;;;;15.55;6.00;;;10.60;99.90;;;;;;5030593;28;20040;-66
2022/11/07 08:25:00;;;;;;;16.65;6.38;;;10.60;99.90;;;;;;5032433;28;20041;-64
2022/11/07 08:27:26;;;;;;;16.00;6.38;;;10.60;99.90;;;;;;5041135;28;20036;-65
2022/11/07 08:29:51;;;;;;;16.23;6.97;;;10.70;99.90;;;;;;5029883;28;20021;-64
2022/11/07 08:32:17;;;;;;;20.13;6.10;;;10.70;99.90;;;;;;5043884;28;20068;-65
2022/11/07 08:34:42;;;;;;;15.82;5.45;;;10.80;99.90;;;;;;5030579;28;20042;-64
2022/11/07 08:37:08;;;;;;;16.77;5.85;;;10.80;99.90;;;;;;5031137;28;20041;-66
2022/11/07 08:39:33;;;;;;;16.85;6.05;;;10.80;99.90;;;;;;5030394;28;20038;-65
2022/11/07 08:41:59;;;;;;;15.60;5.25;;;10.90;99.90;;;;;;5049526;28;20508;-66
2022/11/07 08:44:25;;;;;;;13.57;5.30;;;11.00;99.90;;;;;;5040277;28;20045;-64
2022/11/07 08:46:50;;;;;;;18.85;5.70;;;11.00;99.90;;;;;;5033596;28;20037;-66
2022/11/07 08:49:16;;;;;;;15.82;5.72;;;11.10;99.90;;;;;;5031844;28;20144;-65
2022/11/07 08:51:41;;;;;;;13.63;5.55;;;11.10;99.90;;;;;;5031428;28;20045;-65
2022/11/07 08:54:07;;;;;;;16.77;5.32;;;11.20;99.90;;;;;;5036823;28;20045;-65
2022/11/07 08:56:33;;;;;;;15.60;5.15;;;11.20;99.90;;;;;;5032580;28;20052;-66
2022/11/07 08:58:59;;;;;;;16.33;5.20;;;11.30;99.90;;;;;;5046901;28;20045;-65
2022/11/07 09:01:24;;;;;;;18.45;5.20;;;11.30;99.90;;;;;;5051590;28;20041;-65
2022/11/07 09:03:50;;;;;;;17.85;4.93;;;11.30;99.90;;;;;;5033841;28;20039;-65
2022/11/07 09:06:16;;;;;;;18.02;5.55;;;11.40;99.90;;;;;;5030427;28;20500;-66
2022/11/07 09:08:42;;;;;;;13.02;5.15;;;11.40;99.90;;;;;;5032060;28;20044;-65
2022/11/07 09:11:08;;;;;;;13.63;4.60;;;11.50;99.90;;;;;;5045277;28;20412;-64
2022/11/07 09:13:36;;;;;;;16.92;4.38;;;11.50;99.90;;;;;;5033072;28;20037;-64
2022/11/07 09:16:03;;;;;;;14.00;4.70;;;11.60;99.90;;;;;;5029582;28;20382;-66
2022/11/07 09:18:29;;;;;;;20.60;5.75;;;11.70;99.90;;;;;;5032173;28;20073;-65
2022/11/07 09:20:56;;;;;;;17.70;5.03;;;11.70;99.90;;;;;;5027408;28;20515;-65
2022/11/07 09:23:21;;;;;;;20.83;4.65;;;11.70;99.90;;;;;;5028411;28;20049;-66
2022/11/07 09:25:47;;;;;;;21.58;5.13;;;11.60;99.90;;;;;;5027336;28;20664;-66
2022/11/07 09:28:13;;;;;;;11.88;4.53;;;11.50;99.90;;;;;;5031164;28;20044;-65
2022/11/07 09:30:38;;;;;;;10.85;4.47;;;11.50;99.90;;;;;;4999604;28;20053;-65
2022/11/07 09:33:04;;;;;;;14.18;4.75;;;11.40;99.90;;;;;;5018901;28;20486;-65
2022/11/07 09:35:30;;;;;;;11.82;4.72;;;11.40;99.90;;;;;;5037333;28;20067;-65
2022/11/07 09:37:55;;;;;;;12.98;4.45;;;11.30;99.90;;;;;;5033523;28;20065;-65
2022/11/07 09:40:23;;;;;;;15.30;4.70;;;11.30;99.90;;;;;;5030014;28;20481;-65
2022/11/07 09:43:06;;;;;;;10.10;4.82;;;11.30;99.90;;;;;;5041403;28;20045;-66
2022/11/07 09:45:41;;;;;;;18.25;4.55;;;11.30;99.90;;;;;;5046549;28;20123;-66
2022/11/07 09:48:16;;;;;;;19.77;5.65;;;11.30;99.90;;;;;;5042593;28;20038;-65
2022/11/07 09:50:42;;;;;;;9.65;4.28;;;11.20;99.90;;;;;;5041715;28;20051;-65
2022/11/07 09:53:24;;;;;;;12.85;5.05;;;11.20;99.90;;;;;;5033473;28;20136;-65
2022/11/07 09:55:58;;;;;;;15.50;4.55;;;11.20;99.90;;;;;;5032466;28;20042;-65
2022/11/07 09:58:43;;;;;;;11.02;4.80;;;11.20;99.90;;;;;;5031375;28;20098;-64
2022/11/07 10:01:17;;;;;;;14.65;5.70;;;11.30;99.90;;;;;;5028305;28;20048;-66
2022/11/07 10:03:43;;;;;;;13.90;4.90;;;11.30;99.90;;;;;;5038498;28;20385;-65
2022/11/07 10:06:15;;;;;;;10.07;4.57;;;11.50;99.90;;;;;;5041247;28;20520;-64
2022/11/07 10:09:10;;;;;;;16.35;5.20;;;11.50;99.90;;;;;;5033286;28;20041;-64
2022/11/07 10:11:46;;;;;;;13.15;4.88;;;11.60;99.90;;;;;;5026570;28;20451;-66
2022/11/07 10:14:39;;;;;;;14.25;5.03;;;11.60;99.90;;;;;;5045469;28;20052;-64
2022/11/07 10:17:29;;;;;;;15.13;4.60;;;11.60;99.90;;;;;;5029428;28;20033;-65
2022/11/07 10:20:19;;;;;;;11.18;4.35;;;11.60;99.90;;;;;;5039140;28;20598;-66
2022/11/07 10:23:00;;;;;;;10.67;4.30;;;11.70;99.90;;;;;;5039409;28;20094;-66
2022/11/07 10:25:44;;;;;;;14.07;4.60;;;11.60;99.90;;;;;;5031466;28;20065;-65
2022/11/07 10:28:17;;;;;;;13.95;4.45;;;11.60;99.90;;;;;;5027874;28;20789;-64
2022/11/07 10:30:53;;;;;;;12.48;4.40;;;11.70;99.90;;;;;;5035811;28;20452;-65
2022/11/07 10:33:43;;;;;;;13.75;5.25;;;11.80;99.90;;;;;;5047917;28;20060;-64
2022/11/07 10:36:26;;;;;;;15.18;4.75;;;11.90;99.90;;;;;;5033840;28;20045;-65
2022/11/07 10:38:52;;;;;;;12.32;4.80;;;12.00;99.90;;;;;;5049397;28;20041;-66
2022/11/07 10:41:23;;;;;;;11.60;4.43;;;12.00;99.90;;;;;;5033095;28;20131;-63
2022/11/07 10:43:55;;;;;;;13.45;4.75;;;12.10;99.90;;;;;;5032027;28;20056;-65
2022/11/07 10:46:32;;;;;;;16.10;4.82;;;12.10;99.90;;;;;;5030933;28;21050;-65
2022/11/07 10:49:00;;;;;;;14.60;5.10;;;12.20;99.90;;;;;;5028425;28;20130;-65
2022/11/07 10:51:37;;;;;;;15.23;4.78;;;12.30;99.90;;;;;;5038963;28;20120;-64
2022/11/07 10:54:03;;;;;;;13.48;4.85;;;12.40;99.90;;;;;;5033311;28;20034;-65
2022/11/07 10:56:29;;;;;;;9.95;3.88;;;12.40;99.90;;;;;;5032476;28;20053;-66
2022/11/07 10:58:56;;;;;;;12.48;3.75;;;12.50;99.90;;;;;;5031534;28;20392;-66
2022/11/07 11:01:24;;;;;;;9.98;3.72;;;12.50;99.90;;;;;;5035159;28;21994;-65
2022/11/07 11:03:50;;;;;;;14.07;4.13;;;12.50;99.90;;;;;;5049180;28;20045;-66
2022/11/07 11:06:42;;;;;;;11.45;4.53;;;12.50;99.90;;;;;;5026645;28;20456;-66
2022/11/07 11:09:17;;;;;;;11.02;3.92;;;12.50;99.90;;;;;;5041229;28;20041;-66
2022/11/07 11:11:49;;;;;;;8.15;3.80;;;12.60;99.90;;;;;;5048515;28;20033;-66
2022/11/07 11:14:17;;;;;;;10.50;4.43;;;12.60;99.90;;;;;;5042976;28;20091;-65
2022/11/07 11:16:43;;;;;;;11.82;4.07;;;12.60;99.90;;;;;;5047517;28;20504;-65
2022/11/07 11:19:25;;;;;;;11.57;4.03;;;12.70;99.90;;;;;;5044172;28;20078;-65
2022/11/07 11:21:54;;;;;;;16.90;4.43;;;12.80;99.90;;;;;;5044085;28;20036;-65
2022/11/07 11:24:28;;;;;;;13.65;4.53;;;12.90;99.90;;;;;;5048480;28;20044;-66
2022/11/07 11:26:59;;;;;;;14.88;4.07;;;12.90;99.90;;;;;;5033670;28;20075;-67
2022/11/07 11:29:48;;;;;;;9.68;3.53;;;13.00;99.90;;;;;;5045889;28;20052;-66
2022/11/07 11:32:21;;;;;;;10.38;4.05;;;13.00;99.90;;;;;;5046427;28;20056;-66
2022/11/07 11:35:01;;;;;;;11.45;3.88;;;13.10;99.90;;;;;;5050072;28;20041;-65
2022/11/07 11:37:26;;;;;;;14.75;4.47;;;13.10;99.90;;;;;;5032305;28;20041;-65
2022/11/07 11:40:04;;;;;;;13.40;3.83;;;13.20;99.90;;;;;;5037733;28;20043;-65
2022/11/07 11:42:38;;;;;;;12.25;4.40;;;13.20;99.90;;;;;;5044904;28;20037;-65
2022/11/07 11:45:39;;;;;;;10.98;4.05;;;13.30;99.90;;;;;;5047925;28;20040;-65
2022/11/07 11:48:15;;;;;;;16.48;3.60;;;13.20;99.90;;;;;;5026092;28;20088;-66
2022/11/07 11:50:47;;;;;;;13.73;3.88;;;13.30;99.90;;;;;;5043726;28;20090;-64
2022/11/07 11:53:16;;;;;;;12.43;3.53;;;13.40;99.90;;;;;;5051007;28;20045;-66
2022/11/07 11:55:52;;;;;;;12.23;3.97;;;13.50;99.90;;;;;;5043057;28;20041;-65
2022/11/07 11:59:03;;;;;;;13.27;3.80;;;13.40;99.90;;;;;;5053132;28;20049;-66
2022/11/07 12:01:55;;;;;;;10.43;3.30;;;13.50;99.90;;;;;;5036479;28;20090;-66
2022/11/07 12:04:38;;;;;;;11.43;3.90;;;13.50;99.90;;;;;;5030628;28;20420;-66
2022/11/07 12:07:26;;;;;;;8.73;3.97;;;13.50;99.90;;;;;;5030119;28;20129;-67
2022/11/07 12:10:24;;;;;;;8.98;3.75;;;13.50;99.90;;;;;;5033853;28;20041;-66
2022/11/07 12:13:00;;;;;;;8.25;3.53;;;13.50;99.90;;;;;;5030472;28;20045;-65
2022/11/07 12:15:30;;;;;;;12.05;3.38;;;13.50;99.90;;;;;;5032505;28;20041;-67
2022/11/07 12:18:04;;;;;;;10.15;3.50;;;13.50;99.90;;;;;;5047746;28;20495;-66
2022/11/07 12:20:37;;;;;;;12.05;3.45;;;13.60;99.90;;;;;;5050781;28;20491;-65
2022/11/07 12:23:14;;;;;;;10.68;2.83;;;13.50;99.90;;;;;;5037874;28;20409;-65
2022/11/07 12:26:00;;;;;;;8.25;3.38;;;13.50;99.90;;;;;;5033651;28;20075;-65
2022/11/07 12:29:00;;;;;;;11.02;3.70;;;13.50;99.90;;;;;;5042634;28;20120;-65
2022/11/07 12:31:55;;;;;;;16.38;4.07;;;13.50;99.90;;;;;;5037229;28;20122;-65
2022/11/07 12:34:20;;;;;;;11.90;3.60;;;13.50;99.90;;;;;;5014465;28;20045;-65
2022/11/07 12:37:04;;;;;;;11.52;3.63;;;13.60;99.90;;;;;;5031167;28;20501;-65
2022/11/07 12:39:45;;;;;;;11.10;3.85;;;13.60;99.90;;;;;;5041676;28;20075;-66
2022/11/07 12:42:19;;;;;;;;;;;13.60;99.90;;;;;;5044163;28;20086;-65
2022/11/07 12:45:14;;;;;;;11.63;4.07;;;13.70;99.90;;;;;;5035179;28;19960;-65
2022/11/07 12:48:09;;;;;;;11.90;3.78;;;13.90;99.90;;;;;;5032720;28;20046;-65
2022/11/07 12:50:52;;;;;;;9.25;3.78;;;14.20;99.90;;;;;;5050218;28;20067;-65
2022/11/07 12:53:23;;;;;;;9.60;3.65;;;14.40;99.90;;;;;;5044677;28;20045;-66
2022/11/07 12:55:56;;;;;;;10.50;4.20;;;14.40;99.90;;;;;;5046480;28;20041;-66
2022/11/07 12:58:29;;;;;;;11.65;3.90;;;14.30;99.90;;;;;;5048734;28;20130;-66
2022/11/07 13:00:55;;;;;;;10.23;3.97;;;14.20;99.90;;;;;;5041682;28;20097;-65